Time;durP1;ratioP1;P1;durP2;ratioP2;P2;SDS_P1;SDS_P2;PMS_P1;PMS_P2;Temp;Humidity;BMP_temperature;BMP_pressure;BME280_temperature;BME280_humidity;BME280_pressure;Samples;Min_cycle;Max_cycle;Signal;HPM_P1;HPM_P2
2023/01/22 00:01:23;;;;;;;18.13;15.48;;;1.10;99.90;;;;;;5045398;28;20411;-77
2023/01/22 00:03:52;;;;;;;17.80;15.48;;;1.20;99.90;;;;;;5039375;28;20430;-76
2023/01/22 00:06:19;;;;;;;19.15;15.90;;;1.30;99.90;;;;;;5026747;28;20435;-77
2023/01/22 00:08:47;;;;;;;17.75;15.60;;;1.30;99.90;;;;;;5029042;28;20423;-77
2023/01/22 00:11:14;;;;;;;16.83;14.88;;;1.30;99.90;;;;;;5028200;28;20438;-77
2023/01/22 00:13:41;;;;;;;17.00;14.25;;;1.40;99.90;;;;;;5028610;28;20996;-77
2023/01/22 00:16:10;;;;;;;17.65;15.45;;;1.40;99.90;;;;;;5027928;28;20931;-77
2023/01/22 00:18:38;;;;;;;15.83;14.13;;;1.50;99.90;;;;;;5027421;28;20442;-77
2023/01/22 00:21:05;;;;;;;17.52;15.18;;;1.50;99.90;;;;;;5028238;28;20427;-77
2023/01/22 00:23:32;;;;;;;16.73;15.02;;;1.50;99.90;;;;;;5043580;28;20413;-76
2023/01/22 00:26:03;;;;;;;15.73;14.13;;;1.60;99.90;;;;;;5027224;28;20574;-77
2023/01/22 00:28:30;;;;;;;16.70;14.68;;;1.60;99.50;;;;;;5040730;28;20453;-77
2023/01/22 00:30:57;;;;;;;16.42;14.73;;;1.60;99.80;;;;;;5048714;28;20419;-76
2023/01/22 00:33:24;;;;;;;16.63;14.88;;;1.60;99.20;;;;;;5046642;28;20502;-76
2023/01/22 00:35:52;;;;;;;15.70;14.10;;;1.60;99.20;;;;;;5032250;28;20944;-76
2023/01/22 00:38:19;;;;;;;15.68;13.90;;;1.50;98.80;;;;;;5029597;28;20418;-75
2023/01/22 00:40:46;;;;;;;16.40;14.70;;;1.50;98.70;;;;;;5038773;28;20425;-76
2023/01/22 00:43:12;;;;;;;16.05;14.40;;;1.50;98.70;;;;;;5048173;28;20413;-76
2023/01/22 00:45:39;;;;;;;15.35;13.85;;;1.60;98.30;;;;;;5051201;28;20415;-76
2023/01/22 00:48:06;;;;;;;16.40;14.77;;;1.60;98.60;;;;;;5039989;28;20419;-76
2023/01/22 00:50:33;;;;;;;16.45;14.75;;;1.60;98.50;;;;;;5040079;28;20414;-76
2023/01/22 00:53:02;;;;;;;17.90;15.70;;;1.60;98.70;;;;;;5038427;28;20494;-76
2023/01/22 00:55:29;;;;;;;16.70;15.02;;;1.60;98.90;;;;;;5044264;28;20432;-78
2023/01/22 00:57:56;;;;;;;17.42;15.63;;;1.50;99.50;;;;;;5050956;28;20421;-76
2023/01/22 01:00:23;;;;;;;18.40;16.50;;;1.50;99.90;;;;;;5033282;28;20428;-76
2023/01/22 01:05:34;;;;;;;18.30;16.40;;;1.40;99.90;;;;;;5032303;28;20479;-75
2023/01/22 01:08:02;;;;;;;18.17;16.37;;;1.40;99.90;;;;;;5040738;28;20438;-77
2023/01/22 01:10:29;;;;;;;18.77;16.88;;;1.40;99.90;;;;;;5050759;28;20403;-76
2023/01/22 01:12:55;;;;;;;19.25;16.98;;;1.30;99.90;;;;;;5050311;28;20426;-75
2023/01/22 01:15:23;;;;;;;21.25;19.05;;;1.30;99.90;;;;;;5049489;28;20433;-77
2023/01/22 01:17:49;;;;;;;20.23;18.20;;;1.30;99.90;;;;;;5050921;28;20415;-77
2023/01/22 01:20:16;;;;;;;19.40;17.40;;;1.20;99.90;;;;;;5035073;28;20437;-75
2023/01/22 01:22:43;;;;;;;19.75;17.85;;;1.20;99.90;;;;;;5035744;28;20415;-76
2023/01/22 01:25:11;;;;;;;19.60;17.60;;;1.20;99.90;;;;;;5036942;28;20430;-77
2023/01/22 01:27:38;;;;;;;20.20;18.20;;;1.20;99.90;;;;;;5045768;28;20415;-75
2023/01/22 01:30:06;;;;;;;19.20;17.20;;;1.20;99.90;;;;;;5052867;28;20410;-75
2023/01/22 01:32:32;;;;;;;20.40;18.30;;;1.30;99.90;;;;;;5050885;28;20419;-75
2023/01/22 01:34:59;;;;;;;18.92;16.92;;;1.30;99.90;;;;;;5047052;28;20517;-76
2023/01/22 01:37:26;;;;;;;18.77;16.95;;;1.20;99.90;;;;;;5034259;28;20415;-77
2023/01/22 01:39:53;;;;;;;19.10;17.30;;;1.30;99.90;;;;;;5031258;28;20434;-75
2023/01/22 01:42:28;;;;;;;19.70;17.70;;;1.30;99.90;;;;;;5029309;28;20418;-76
2023/01/22 01:45:31;;;;;;;20.63;18.48;;;1.30;99.90;;;;;;5029955;28;20410;-76
2023/01/22 01:48:06;;;;;;;19.90;17.90;;;1.30;99.90;;;;;;5029767;28;21135;-77
2023/01/22 01:50:34;;;;;;;20.03;17.93;;;1.30;99.90;;;;;;5030458;28;20419;-76
2023/01/22 01:53:01;;;;;;;19.42;17.52;;;1.30;99.90;;;;;;5029642;28;20418;-76
2023/01/22 01:55:31;;;;;;;18.92;16.98;;;1.30;99.90;;;;;;5029919;28;20841;-76
2023/01/22 01:58:02;;;;;;;19.50;17.40;;;1.30;99.90;;;;;;5027436;28;20415;-77
2023/01/22 02:00:33;;;;;;;19.23;17.23;;;1.30;99.90;;;;;;5029566;28;20427;-77
2023/01/22 02:03:00;;;;;;;18.03;16.27;;;1.20;99.90;;;;;;5028639;28;20461;-77
2023/01/22 02:05:31;;;;;;;19.83;17.73;;;1.20;99.90;;;;;;5030595;28;20419;-76
2023/01/22 02:07:58;;;;;;;19.20;17.30;;;1.20;99.90;;;;;;5031516;28;20423;-76
2023/01/22 02:10:25;;;;;;;18.42;16.52;;;1.20;99.90;;;;;;5033418;28;20442;-76
2023/01/22 02:12:55;;;;;;;18.27;16.48;;;1.20;99.90;;;;;;5036929;28;20435;-77
2023/01/22 02:15:23;;;;;;;19.08;17.13;;;1.20;99.90;;;;;;5040233;28;20526;-75
2023/01/22 02:17:50;;;;;;;18.75;16.85;;;1.20;99.90;;;;;;5039480;28;20425;-76
2023/01/22 02:20:17;;;;;;;18.42;16.63;;;1.10;99.90;;;;;;5038163;28;20427;-77
2023/01/22 02:22:45;;;;;;;19.35;17.33;;;1.10;99.90;;;;;;5039291;28;21087;-76
2023/01/22 02:25:12;;;;;;;21.27;18.98;;;1.10;99.90;;;;;;5039818;28;20457;-76
2023/01/22 02:27:39;;;;;;;20.88;18.67;;;1.10;99.90;;;;;;5038327;28;20442;-78
2023/01/22 02:30:07;;;;;;;21.77;19.50;;;1.10;99.90;;;;;;5038197;28;20415;-77
2023/01/22 02:32:33;;;;;;;21.23;19.13;;;1.10;99.90;;;;;;5044900;28;20426;-76
2023/01/22 02:35:00;;;;;;;21.17;19.05;;;1.10;99.90;;;;;;5052008;28;20421;-75
2023/01/22 02:37:27;;;;;;;21.25;19.05;;;1.10;99.90;;;;;;5049303;28;20896;-76
2023/01/22 02:39:55;;;;;;;20.88;18.77;;;1.10;99.90;;;;;;5039557;28;20457;-77
2023/01/22 02:42:22;;;;;;;21.45;19.25;;;1.10;99.90;;;;;;5037942;28;20418;-75
2023/01/22 02:44:51;;;;;;;21.80;19.52;;;1.10;99.90;;;;;;5039407;28;20434;-76
2023/01/22 02:47:18;;;;;;;19.93;17.93;;;1.10;99.90;;;;;;5033974;28;20517;-75
2023/01/22 02:49:45;;;;;;;19.50;17.50;;;1.10;99.90;;;;;;5031168;28;20426;-76
2023/01/22 02:52:11;;;;;;;20.63;18.52;;;1.10;99.90;;;;;;5039528;28;20422;-75
2023/01/22 02:54:38;;;;;;;20.92;18.83;;;1.10;99.90;;;;;;5049224;28;20415;-76
2023/01/22 02:57:06;;;;;;;19.88;17.77;;;1.10;99.90;;;;;;5047725;28;20861;-77
2023/01/22 02:59:34;;;;;;;19.88;17.88;;;1.10;99.90;;;;;;5046957;28;20419;-76
2023/01/22 03:02:01;;;;;;;20.27;18.27;;;1.10;99.90;;;;;;5034549;28;20893;-77
2023/01/22 03:04:27;;;;;;;19.63;17.63;;;1.10;99.90;;;;;;5029128;28;20430;-77
2023/01/22 03:06:54;;;;;;;19.90;17.90;;;1.10;99.90;;;;;;5028667;28;20434;-76
2023/01/22 03:09:21;;;;;;;19.23;17.27;;;1.10;99.90;;;;;;5037386;28;20411;-76
2023/01/22 03:11:48;;;;;;;19.35;17.33;;;1.10;99.90;;;;;;5069753;28;20410;-76
2023/01/22 03:22:29;;;;;;;19.30;17.30;;;1.20;99.90;;;;;;5021583;28;20396;-78
2023/01/22 03:24:57;;;;;;;19.52;17.60;;;1.20;99.90;;;;;;5024001;28;20498;-75
2023/01/22 03:27:26;;;;;;;19.65;17.60;;;1.20;99.90;;;;;;5023332;28;20439;-74
2023/01/22 03:29:55;;;;;;;19.35;17.40;;;1.20;99.90;;;;;;5023628;28;20446;-75
2023/01/22 03:32:22;;;;;;;20.35;18.25;;;1.10;99.90;;;;;;5041389;28;21035;-75
2023/01/22 03:34:49;;;;;;;20.60;18.40;;;1.10;99.90;;;;;;5042914;28;20417;-77
2023/01/22 03:37:16;;;;;;;20.80;18.60;;;1.10;99.90;;;;;;5043382;28;20852;-77
2023/01/22 03:39:43;;;;;;;21.65;19.45;;;1.10;99.90;;;;;;5046131;28;20425;-77
2023/01/22 03:42:10;;;;;;;21.15;19.05;;;1.10;99.90;;;;;;5045146;28;20433;-76
2023/01/22 03:44:36;;;;;;;21.08;18.88;;;1.00;99.90;;;;;;5039554;28;20464;-76
2023/01/22 03:47:04;;;;;;;21.63;19.17;;;1.00;99.90;;;;;;5023434;28;20425;-75
2023/01/22 03:49:31;;;;;;;20.73;18.52;;;1.00;99.90;;;;;;5033087;28;20422;-76
2023/01/22 03:51:58;;;;;;;21.25;19.05;;;1.00;99.90;;;;;;5030403;28;20909;-75
2023/01/22 03:54:25;;;;;;;20.30;18.20;;;1.00;99.90;;;;;;5034741;28;20828;-75
2023/01/22 03:56:51;;;;;;;20.63;18.53;;;1.00;99.90;;;;;;5036443;28;20423;-76
2023/01/22 03:59:18;;;;;;;20.63;18.52;;;1.00;99.90;;;;;;5038363;28;20441;-76
2023/01/22 04:01:45;;;;;;;18.93;16.93;;;1.00;99.90;;;;;;5043633;28;20460;-75
2023/01/22 04:04:13;;;;;;;19.10;17.20;;;1.10;99.90;;;;;;5052752;28;20413;-76
2023/01/22 04:06:40;;;;;;;20.33;18.23;;;1.10;99.90;;;;;;5052266;28;20440;-76
2023/01/22 04:09:07;;;;;;;19.52;17.48;;;1.00;99.90;;;;;;5053318;28;20413;-75
2023/01/22 04:11:33;;;;;;;19.38;17.38;;;1.10;99.90;;;;;;5053276;28;20554;-76
2023/01/22 04:14:00;;;;;;;20.45;18.45;;;1.10;99.90;;;;;;5033500;28;20538;-75
2023/01/22 04:16:27;;;;;;;19.70;17.70;;;1.10;99.90;;;;;;5033445;28;20423;-77
2023/01/22 04:18:53;;;;;;;19.02;17.13;;;1.10;99.90;;;;;;5035615;28;20415;-76
2023/01/22 04:21:21;;;;;;;19.50;17.60;;;1.10;99.90;;;;;;5033568;28;20427;-76
2023/01/22 04:23:48;;;;;;;20.67;18.77;;;1.10;99.90;;;;;;5030114;28;20418;-76
2023/01/22 04:26:15;;;;;;;19.42;17.42;;;1.10;99.90;;;;;;5030969;28;20426;-77
2023/01/22 04:28:42;;;;;;;20.37;18.37;;;1.10;99.90;;;;;;5034144;28;20438;-75
2023/01/22 04:31:08;;;;;;;19.33;17.42;;;1.10;99.90;;;;;;5039058;28;20429;-78
2023/01/22 04:33:35;;;;;;;19.85;17.85;;;1.20;99.90;;;;;;5041911;28;20423;-76
2023/01/22 04:36:02;;;;;;;19.10;17.20;;;1.20;99.90;;;;;;5043947;28;20403;-76
2023/01/22 04:38:30;;;;;;;18.73;16.92;;;1.20;99.90;;;;;;5042748;28;20771;-76
2023/01/22 04:40:57;;;;;;;19.48;17.58;;;1.20;99.90;;;;;;5042467;28;20453;-75
2023/01/22 04:43:23;;;;;;;19.50;17.50;;;1.20;99.90;;;;;;5039145;28;20443;-75
2023/01/22 04:45:50;;;;;;;20.27;18.27;;;1.20;99.90;;;;;;5035449;28;20430;-77
2023/01/22 04:48:17;;;;;;;20.50;18.40;;;1.20;99.90;;;;;;5032342;28;20439;-77
2023/01/22 04:50:44;;;;;;;20.33;18.33;;;1.20;99.90;;;;;;5033164;28;20415;-78
2023/01/22 04:53:11;;;;;;;18.75;16.85;;;1.20;99.90;;;;;;5032600;28;20526;-77
2023/01/22 04:55:40;;;;;;;18.90;17.00;;;1.20;99.90;;;;;;5033515;28;20995;-75
2023/01/22 04:58:07;;;;;;;18.67;16.88;;;1.10;99.90;;;;;;5032054;28;20431;-77
2023/01/22 05:00:34;;;;;;;18.52;16.73;;;1.10;99.90;;;;;;5032457;28;21027;-77
2023/01/22 05:03:03;;;;;;;18.10;16.40;;;1.10;99.90;;;;;;5051151;28;20432;-75
2023/01/22 05:05:31;;;;;;;19.85;18.05;;;1.20;99.90;;;;;;5055549;28;20417;-74
2023/01/22 05:07:58;;;;;;;19.38;17.55;;;1.20;99.90;;;;;;5055436;28;20424;-77
2023/01/22 05:10:25;;;;;;;18.95;17.13;;;1.20;99.90;;;;;;5054384;28;20890;-76
2023/01/22 05:12:53;;;;;;;19.20;17.50;;;1.20;99.90;;;;;;5035987;28;20442;-76
2023/01/22 05:15:20;;;;;;;18.80;16.90;;;1.20;99.90;;;;;;5051487;28;20437;-76
2023/01/22 05:17:46;;;;;;;18.80;17.00;;;1.20;99.90;;;;;;5062158;28;20413;-77
2023/01/22 05:20:13;;;;;;;17.95;16.15;;;1.20;99.90;;;;;;5055750;28;20399;-77
2023/01/22 05:22:40;;;;;;;18.80;17.00;;;1.20;99.90;;;;;;5050852;28;20525;-76
2023/01/22 05:25:07;;;;;;;19.05;17.25;;;1.20;99.90;;;;;;5039414;28;20522;-76
2023/01/22 05:27:34;;;;;;;19.35;17.55;;;1.20;99.90;;;;;;5032087;28;20426;-77
2023/01/22 05:30:02;;;;;;;19.38;17.48;;;1.20;99.90;;;;;;5032215;28;20427;-76
2023/01/22 05:32:29;;;;;;;18.17;16.38;;;1.20;99.90;;;;;;5031741;28;20415;-77
2023/01/22 05:34:56;;;;;;;18.27;16.47;;;1.10;99.90;;;;;;5032251;28;20426;-77
2023/01/22 05:37:22;;;;;;;18.95;17.15;;;1.10;99.90;;;;;;5030639;28;20418;-77
2023/01/22 05:39:49;;;;;;;18.73;16.92;;;1.10;99.90;;;;;;5030265;28;20430;-77
2023/01/22 05:42:16;;;;;;;18.35;16.60;;;1.10;99.90;;;;;;5029966;28;20458;-77
2023/01/22 05:44:43;;;;;;;19.63;17.73;;;1.10;99.90;;;;;;5033417;28;20434;-77
2023/01/22 05:47:13;;;;;;;18.67;16.85;;;1.10;99.90;;;;;;5034881;28;20435;-76
2023/01/22 05:49:40;;;;;;;19.00;17.20;;;1.10;99.90;;;;;;5034625;28;20419;-78
2023/01/22 05:52:09;;;;;;;17.67;16.08;;;1.10;99.90;;;;;;5034438;28;20429;-78
2023/01/22 05:54:37;;;;;;;18.20;16.50;;;1.10;99.90;;;;;;5037947;28;20450;-77
2023/01/22 05:57:04;;;;;;;18.13;16.42;;;1.10;99.90;;;;;;5033043;28;20484;-76
2023/01/22 05:59:31;;;;;;;17.13;15.53;;;1.10;99.90;;;;;;5033368;28;20505;-77
2023/01/22 06:01:58;;;;;;;17.58;16.05;;;1.10;99.90;;;;;;5049321;28;20438;-76
2023/01/22 06:04:26;;;;;;;18.13;16.42;;;1.20;99.90;;;;;;5049722;28;20423;-75
2023/01/22 06:06:52;;;;;;;17.80;16.20;;;1.20;99.90;;;;;;5047800;28;20403;-76
2023/01/22 06:09:19;;;;;;;17.50;15.90;;;1.20;99.90;;;;;;5039130;28;20434;-75
2023/01/22 06:11:46;;;;;;;17.83;16.23;;;1.20;99.90;;;;;;5030020;28;20454;-76
2023/01/22 06:14:13;;;;;;;17.80;16.10;;;1.10;99.90;;;;;;5022517;28;20967;-75
2023/01/22 06:16:39;;;;;;;16.75;15.23;;;1.20;99.90;;;;;;5029610;28;20435;-76
2023/01/22 06:19:06;;;;;;;15.73;14.43;;;1.20;99.90;;;;;;5038784;28;21013;-77
2023/01/22 06:21:34;;;;;;;16.88;15.18;;;1.20;99.90;;;;;;5040217;28;20469;-76
2023/01/22 06:24:01;;;;;;;17.30;15.70;;;1.20;99.90;;;;;;5051193;28;20484;-74
2023/01/22 06:26:28;;;;;;;15.80;14.40;;;1.20;99.90;;;;;;5043456;28;20423;-76
2023/01/22 06:28:55;;;;;;;16.40;14.80;;;1.20;99.90;;;;;;5042449;28;20425;-75
2023/01/22 06:31:21;;;;;;;16.65;15.15;;;1.20;99.90;;;;;;5039373;28;20415;-75
2023/01/22 06:33:48;;;;;;;15.82;14.43;;;1.20;99.90;;;;;;5034950;28;20435;-75
2023/01/22 06:36:15;;;;;;;16.17;14.68;;;1.20;99.90;;;;;;5035955;28;20414;-75
2023/01/22 06:38:43;;;;;;;15.98;14.50;;;1.20;99.90;;;;;;5036056;28;20440;-75
2023/01/22 06:41:10;;;;;;;15.90;14.50;;;1.20;99.90;;;;;;5035992;28;20427;-76
2023/01/22 06:43:37;;;;;;;14.73;13.43;;;1.30;99.90;;;;;;5034462;28;20502;-75
2023/01/22 06:46:04;;;;;;;14.70;13.40;;;1.30;99.90;;;;;;5036435;28;20514;-75
2023/01/22 06:48:31;;;;;;;15.43;14.10;;;1.30;99.90;;;;;;5036930;28;20779;-75
2023/01/22 06:50:58;;;;;;;15.52;14.13;;;1.30;99.90;;;;;;5036050;28;20442;-77
2023/01/22 06:53:25;;;;;;;15.70;14.20;;;1.30;99.90;;;;;;5047356;28;20444;-76
2023/01/22 06:55:53;;;;;;;15.60;14.10;;;1.30;99.90;;;;;;5059668;28;20410;-76
2023/01/22 06:58:20;;;;;;;15.95;14.55;;;1.30;99.90;;;;;;5052130;28;20402;-74
2023/01/22 07:00:47;;;;;;;15.70;14.30;;;1.20;99.90;;;;;;5055588;28;20391;-75
2023/01/22 07:03:14;;;;;;;14.90;13.60;;;1.20;99.90;;;;;;5053814;28;20444;-76
2023/01/22 07:05:40;;;;;;;16.98;15.48;;;1.20;99.90;;;;;;5038672;28;20425;-75
2023/01/22 07:08:07;;;;;;;17.10;15.60;;;1.20;99.90;;;;;;5039510;28;20430;-75
2023/01/22 07:10:34;;;;;;;16.50;15.00;;;1.20;99.90;;;;;;5036052;28;20423;-75
2023/01/22 07:13:03;;;;;;;16.23;14.82;;;1.30;99.90;;;;;;5035988;28;20432;-74
2023/01/22 07:15:30;;;;;;;15.75;14.35;;;1.30;99.90;;;;;;5037603;28;20425;-76
2023/01/22 07:17:56;;;;;;;15.60;14.20;;;1.20;99.90;;;;;;5042148;28;20432;-76
2023/01/22 07:20:24;;;;;;;16.85;15.32;;;1.20;99.90;;;;;;5035190;28;20870;-77
2023/01/22 07:22:51;;;;;;;15.82;14.43;;;1.20;99.90;;;;;;5033366;28;20430;-76
2023/01/22 07:25:18;;;;;;;16.33;14.85;;;1.20;99.90;;;;;;5035661;28;20420;-76
2023/01/22 07:27:44;;;;;;;17.10;15.60;;;1.20;99.90;;;;;;5039172;28;20875;-77
2023/01/22 07:30:13;;;;;;;16.80;15.27;;;1.20;99.90;;;;;;5036827;28;20443;-76
2023/01/22 07:32:40;;;;;;;16.23;14.73;;;1.20;99.90;;;;;;5041632;28;20931;-75
2023/01/22 07:35:08;;;;;;;16.60;15.10;;;1.20;99.90;;;;;;5046154;28;20485;-76
2023/01/22 07:37:35;;;;;;;16.40;14.90;;;1.20;99.90;;;;;;5049096;28;20418;-76
2023/01/22 07:40:02;;;;;;;17.15;15.55;;;1.20;99.90;;;;;;5060072;28;20419;-76
2023/01/22 07:42:28;;;;;;;16.92;15.32;;;1.20;99.90;;;;;;5043769;28;20524;-76
2023/01/22 07:44:55;;;;;;;17.20;15.60;;;1.20;99.90;;;;;;5036747;28;20422;-76
2023/01/22 07:47:23;;;;;;;17.40;15.80;;;1.20;99.90;;;;;;5029651;28;20426;-76
2023/01/22 07:49:50;;;;;;;16.77;15.18;;;1.20;99.90;;;;;;5027089;28;20429;-76
2023/01/22 07:52:16;;;;;;;17.45;15.85;;;1.30;99.90;;;;;;5024852;28;20435;-76
2023/01/22 07:54:43;;;;;;;17.20;15.70;;;1.30;99.90;;;;;;5023610;28;20450;-74
2023/01/22 07:57:14;;;;;;;17.23;15.63;;;1.20;99.90;;;;;;5026531;28;20877;-74
2023/01/22 07:59:41;;;;;;;17.90;16.20;;;1.30;99.90;;;;;;5027397;28;20435;-74
2023/01/22 08:02:11;;;;;;;17.20;15.60;;;1.30;99.90;;;;;;5037556;28;20429;-75
2023/01/22 08:04:40;;;;;;;17.70;16.00;;;1.30;99.90;;;;;;5025328;28;20442;-76
2023/01/22 08:07:07;;;;;;;16.50;15.00;;;1.30;99.90;;;;;;5023897;28;20446;-76
2023/01/22 08:09:36;;;;;;;16.88;15.38;;;1.30;99.90;;;;;;5028117;28;20426;-76
2023/01/22 08:12:04;;;;;;;17.35;15.75;;;1.40;99.90;;;;;;5023068;28;20439;-76
2023/01/22 08:14:30;;;;;;;16.70;15.20;;;1.30;99.90;;;;;;5020198;28;20698;-73
2023/01/22 08:16:57;;;;;;;25.70;21.98;;;1.40;99.90;;;;;;5021871;28;20445;-65
2023/01/22 08:19:24;;;;;;;17.95;16.20;;;1.40;99.90;;;;;;5025685;28;20443;-75
2023/01/22 08:21:52;;;;;;;16.75;15.15;;;1.50;99.90;;;;;;5025299;28;20435;-77
2023/01/22 08:24:19;;;;;;;16.90;15.30;;;1.50;99.90;;;;;;5026061;28;20435;-75
2023/01/22 08:26:46;;;;;;;15.70;14.30;;;1.60;99.90;;;;;;5025086;28;20873;-75
2023/01/22 08:29:13;;;;;;;16.63;14.93;;;1.60;99.90;;;;;;5024753;28;20442;-73
2023/01/22 08:31:39;;;;;;;16.75;15.25;;;1.60;99.90;;;;;;5023270;28;20446;-73
2023/01/22 08:34:07;;;;;;;15.95;14.45;;;1.60;99.90;;;;;;5026092;28;20443;-73
2023/01/22 08:36:33;;;;;;;15.70;14.30;;;1.50;99.90;;;;;;5032382;28;20449;-73
2023/01/22 08:39:02;;;;;;;16.83;15.23;;;1.50;99.90;;;;;;5041431;28;20433;-74
2023/01/22 08:41:37;;;;;;;16.50;15.00;;;1.50;99.90;;;;;;5040622;28;21118;-74
2023/01/22 08:44:04;;;;;;;16.98;15.48;;;1.50;99.90;;;;;;5041390;28;20430;-74
2023/01/22 08:46:31;;;;;;;15.45;14.05;;;1.50;99.90;;;;;;5034030;28;20452;-76
2023/01/22 08:49:05;;;;;;;15.60;14.30;;;1.50;99.90;;;;;;5028162;28;20441;-74
2023/01/22 08:51:33;;;;;;;16.35;14.77;;;1.50;99.90;;;;;;5033465;28;20805;-76
2023/01/22 08:53:59;;;;;;;16.75;15.23;;;1.60;99.90;;;;;;5034588;28;20431;-76
2023/01/22 08:56:27;;;;;;;15.55;14.10;;;1.60;99.90;;;;;;5040413;28;20445;-76
2023/01/22 08:58:55;;;;;;;16.00;14.50;;;1.60;99.90;;;;;;5032112;28;20439;-77
2023/01/22 09:01:22;;;;;;;15.63;14.23;;;1.60;99.90;;;;;;5026207;28;20493;-76
2023/01/22 09:03:48;;;;;;;15.60;14.20;;;1.60;99.90;;;;;;5026536;28;20460;-75
2023/01/22 09:06:15;;;;;;;15.05;13.65;;;1.60;99.90;;;;;;5030201;28;21027;-75
2023/01/22 09:08:43;;;;;;;14.75;13.35;;;1.70;99.90;;;;;;5027589;28;20446;-77
2023/01/22 09:11:10;;;;;;;15.80;14.40;;;1.70;99.90;;;;;;5026655;28;20419;-75
2023/01/22 09:13:39;;;;;;;15.60;14.10;;;1.70;99.90;;;;;;5026741;28;20443;-77
2023/01/22 09:16:09;;;;;;;14.70;13.40;;;1.70;99.90;;;;;;5027109;28;20433;-74
2023/01/22 09:18:36;;;;;;;15.27;13.88;;;1.80;99.90;;;;;;5029321;28;20496;-75
2023/01/22 09:21:04;;;;;;;14.05;12.75;;;1.90;99.90;;;;;;5028996;28;20842;-74
2023/01/22 09:23:31;;;;;;;15.07;13.68;;;1.80;99.90;;;;;;5023576;28;20881;-76
2023/01/22 09:25:58;;;;;;;14.27;13.00;;;1.90;99.90;;;;;;5030633;28;20512;-75
2023/01/22 09:28:25;;;;;;;14.40;13.10;;;1.90;99.90;;;;;;5027927;28;20415;-75
2023/01/22 09:30:53;;;;;;;15.50;14.00;;;1.90;99.90;;;;;;5032188;28;20434;-75
2023/01/22 09:33:19;;;;;;;14.95;13.55;;;1.90;99.90;;;;;;5039052;28;20420;-75
2023/01/22 09:35:46;;;;;;;14.90;13.60;;;1.90;99.90;;;;;;5047486;28;20426;-75
2023/01/22 09:38:13;;;;;;;15.50;14.00;;;1.90;99.90;;;;;;5049935;28;20408;-75
2023/01/22 09:40:45;;;;;;;14.98;13.57;;;1.90;99.90;;;;;;5050110;28;20425;-76
2023/01/22 09:43:28;;;;;;;15.55;14.15;;;1.90;99.90;;;;;;5049780;28;20487;-76
2023/01/22 09:46:00;;;;;;;15.90;14.30;;;1.90;99.90;;;;;;5049990;28;20411;-76
2023/01/22 09:48:34;;;;;;;15.27;13.87;;;2.00;99.90;;;;;;5049071;28;20466;-76
2023/01/22 09:51:02;;;;;;;16.13;14.63;;;2.00;99.90;;;;;;5045480;28;20448;-75
2023/01/22 09:53:29;;;;;;;15.60;14.20;;;2.10;99.90;;;;;;5042458;28;20410;-75
2023/01/22 09:55:57;;;;;;;15.40;13.90;;;2.10;99.90;;;;;;5039793;28;20419;-75
2023/01/22 09:58:25;;;;;;;15.80;14.35;;;2.20;99.90;;;;;;5035779;28;20434;-76
2023/01/22 10:00:56;;;;;;;15.85;14.45;;;2.30;99.90;;;;;;5036849;28;20442;-75
2023/01/22 10:03:31;;;;;;;15.98;14.57;;;2.40;99.90;;;;;;5035935;28;20545;-75
2023/01/22 10:06:02;;;;;;;15.55;14.25;;;2.50;99.90;;;;;;5029773;28;20434;-77
2023/01/22 10:08:33;;;;;;;14.27;13.07;;;2.60;99.90;;;;;;5030739;28;20805;-74
2023/01/22 10:11:00;;;;;;;14.15;12.95;;;2.70;99.90;;;;;;5030476;28;20803;-75
2023/01/22 10:13:29;;;;;;;14.65;13.27;;;2.80;99.90;;;;;;5031012;28;20411;-74
2023/01/22 10:15:56;;;;;;;14.40;13.10;;;2.80;99.90;;;;;;5031873;28;20422;-75
2023/01/22 10:18:34;;;;;;;14.68;13.38;;;2.90;99.90;;;;;;5030906;28;20419;-76
2023/01/22 10:21:04;;;;;;;14.68;13.38;;;2.90;99.90;;;;;;5031480;28;20431;-74
2023/01/22 10:23:33;;;;;;;13.77;12.68;;;2.90;99.90;;;;;;5026713;28;20435;-76
2023/01/22 10:26:06;;;;;;;14.05;12.75;;;2.80;99.90;;;;;;5034082;28;20415;-74
2023/01/22 10:28:33;;;;;;;14.30;13.00;;;2.80;99.90;;;;;;5029530;28;21028;-76
2023/01/22 10:31:00;;;;;;;14.43;13.10;;;2.70;99.90;;;;;;5029453;28;20419;-76
2023/01/22 10:33:28;;;;;;;13.88;12.68;;;2.70;99.90;;;;;;5032909;28;20439;-76
2023/01/22 10:35:56;;;;;;;14.50;13.20;;;2.70;99.90;;;;;;5029416;28;20822;-76
2023/01/22 10:38:26;;;;;;;14.10;12.82;;;2.60;99.90;;;;;;5043321;28;20402;-75
2023/01/22 10:40:56;;;;;;;14.43;13.10;;;2.70;99.90;;;;;;5031776;28;21068;-76
2023/01/22 10:43:29;;;;;;;13.70;12.50;;;2.80;99.90;;;;;;5028895;28;20458;-76
2023/01/22 10:45:58;;;;;;;12.80;11.60;;;2.90;99.90;;;;;;5028704;28;21219;-76
2023/01/22 10:48:25;;;;;;;13.35;12.15;;;3.00;99.90;;;;;;5030138;28;20511;-76
2023/01/22 10:51:07;;;;;;;13.30;12.20;;;3.00;99.90;;;;;;5037700;28;20924;-76
2023/01/22 10:53:38;;;;;;;13.90;12.70;;;2.90;99.90;;;;;;5028450;28;20419;-77
2023/01/22 10:56:10;;;;;;;13.20;12.10;;;3.00;99.90;;;;;;5036792;28;20498;-76
2023/01/22 10:58:39;;;;;;;13.18;12.07;;;3.00;99.90;;;;;;5031209;28;20792;-77
2023/01/22 11:01:29;;;;;;;13.00;11.90;;;3.00;99.90;;;;;;5035485;28;20415;-77
2023/01/22 11:03:56;;;;;;;12.65;11.55;;;3.10;99.90;;;;;;5028011;28;20431;-76
2023/01/22 11:06:30;;;;;;;12.00;10.90;;;3.10;99.90;;;;;;5029153;28;21153;-76
2023/01/22 11:09:01;;;;;;;13.45;12.30;;;3.20;99.90;;;;;;5028738;28;20419;-76
2023/01/22 11:11:33;;;;;;;12.60;11.50;;;3.20;99.90;;;;;;5028377;28;20434;-76
2023/01/22 11:14:04;;;;;;;13.07;11.98;;;3.20;99.90;;;;;;5026970;28;20431;-76
2023/01/22 11:16:34;;;;;;;12.40;11.30;;;3.20;99.90;;;;;;5028152;28;20744;-77
2023/01/22 11:19:05;;;;;;;12.68;11.57;;;3.30;99.90;;;;;;5027374;28;20442;-76
2023/01/22 11:21:37;;;;;;;12.30;11.20;;;3.30;99.90;;;;;;5025858;28;20446;-76
2023/01/22 11:24:09;;;;;;;13.60;12.30;;;3.30;99.90;;;;;;5024695;28;20435;-76
2023/01/22 11:26:49;;;;;;;13.15;11.95;;;3.30;99.90;;;;;;5038487;28;20426;-76
2023/01/22 11:29:35;;;;;;;12.60;11.50;;;3.40;99.90;;;;;;5027728;28;20873;-76
2023/01/22 11:32:21;;;;;;;12.82;11.73;;;3.40;99.90;;;;;;5029693;28;20943;-76
2023/01/22 11:34:57;;;;;;;13.00;11.90;;;3.50;99.90;;;;;;5029307;28;20822;-77
2023/01/22 11:37:37;;;;;;;13.00;11.82;;;3.50;99.90;;;;;;5028077;28;20854;-76
2023/01/22 11:40:19;;;;;;;13.40;12.20;;;3.50;99.90;;;;;;5030371;28;20750;-77
2023/01/22 11:43:17;;;;;;;12.30;11.20;;;3.50;99.90;;;;;;5018396;28;20435;-77
2023/01/22 11:45:56;;;;;;;11.88;10.88;;;3.50;99.90;;;;;;5030721;28;20496;-76
2023/01/22 11:48:37;;;;;;;10.90;9.90;;;3.50;99.80;;;;;;5023874;28;20450;-76
2023/01/22 11:51:20;;;;;;;10.70;9.80;;;3.50;99.00;;;;;;5028316;28;20439;-77
2023/01/22 11:54:12;;;;;;;9.70;8.90;;;3.50;99.40;;;;;;5027365;28;20422;-76
2023/01/22 11:56:56;;;;;;;8.88;8.10;;;3.40;99.10;;;;;;5030110;28;20411;-77
2023/01/22 11:59:35;;;;;;;8.60;7.90;;;3.40;99.00;;;;;;5039080;28;20423;-77
2023/01/22 12:02:20;;;;;;;9.02;8.32;;;3.30;99.10;;;;;;5042136;28;20434;-77
2023/01/22 12:05:12;;;;;;;9.30;8.50;;;3.30;99.40;;;;;;5042070;28;20442;-76
2023/01/22 12:07:58;;;;;;;9.27;8.38;;;3.30;99.40;;;;;;5021691;28;20425;-76
2023/01/22 12:10:46;;;;;;;9.00;8.20;;;3.30;98.90;;;;;;5035183;28;20433;-77
2023/01/22 12:13:26;;;;;;;9.23;8.40;;;3.20;98.90;;;;;;5043540;28;20422;-76
2023/01/22 12:16:05;;;;;;;8.60;7.90;;;3.20;99.30;;;;;;5043562;28;20441;-76
2023/01/22 12:18:57;;;;;;;9.00;8.30;;;3.20;99.10;;;;;;5044279;28;20445;-75
2023/01/22 12:21:37;;;;;;;8.65;7.95;;;3.20;99.40;;;;;;5038258;28;20491;-76
2023/01/22 12:24:12;;;;;;;8.95;8.25;;;3.20;99.20;;;;;;5045118;28;20433;-76
2023/01/22 12:26:44;;;;;;;8.88;8.18;;;3.10;99.20;;;;;;5044705;28;20418;-77
2023/01/22 12:29:16;;;;;;;8.90;8.10;;;3.20;99.00;;;;;;5035142;28;20429;-78
2023/01/22 12:31:47;;;;;;;8.70;8.00;;;3.20;99.40;;;;;;5028844;28;20939;-78
2023/01/22 12:34:19;;;;;;;8.90;8.10;;;3.10;99.60;;;;;;5028065;28;20453;-76
2023/01/22 12:36:46;;;;;;;9.40;8.60;;;3.20;99.70;;;;;;5027438;28;20536;-77
2023/01/22 12:39:24;;;;;;;8.60;7.90;;;3.20;99.10;;;;;;5028954;28;20419;-77
2023/01/22 12:42:04;;;;;;;9.03;8.33;;;3.10;99.00;;;;;;5025553;28;20434;-76
2023/01/22 12:44:45;;;;;;;9.93;9.13;;;3.10;98.90;;;;;;5041119;28;20515;-76
2023/01/22 12:47:17;;;;;;;8.73;8.02;;;3.10;99.50;;;;;;5037147;28;20410;-77
2023/01/22 12:49:49;;;;;;;10.52;9.65;;;3.10;99.50;;;;;;5044384;28;20434;-76
2023/01/22 12:52:31;;;;;;;10.73;9.88;;;3.10;99.10;;;;;;5043300;28;20411;-76
2023/01/22 12:54:58;;;;;;;10.40;9.50;;;3.10;99.10;;;;;;5038350;28;20593;-76
2023/01/22 12:57:37;;;;;;;12.10;11.00;;;3.10;99.40;;;;;;5040777;28;20415;-77
2023/01/22 13:00:22;;;;;;;14.00;12.80;;;3.10;99.90;;;;;;5039708;28;20419;-77